Time;durP1;ratioP1;P1;durP2;ratioP2;P2;SDS_P1;SDS_P2;PMS_P1;PMS_P2;Temp;Humidity;BMP_temperature;BMP_pressure;BME280_temperature;BME280_humidity;BME280_pressure;Samples;Min_cycle;Max_cycle;Signal;HPM_P1;HPM_P2
2021/06/20 00:51:26;;;;;;;13.63;11.20;;;;;;;23.15;59.24;100860.78;5163880;27;363094;-91
2021/06/20 00:53:51;;;;;;;14.02;10.77;;;;;;;23.16;59.96;100856.38;5153858;27;20028;-92
2021/06/20 00:58:43;;;;;;;12.20;10.48;;;;;;;23.16;59.91;100861.63;5122289;22;20052;-91
2021/06/20 01:01:09;;;;;;;12.18;10.80;;;;;;;23.16;59.18;100864.25;5103282;22;20512;-91
2021/06/20 06:30:59;;;;;;;7.82;2.30;;;;;;;23.33;55.27;100812.06;4872352;29;20068;-91
2021/06/20 06:37:19;;;;;;;7.90;1.90;;;;;;;23.30;54.80;100804.28;4899969;29;20059;-91
2021/06/20 07:28:32;;;;;;;7.78;1.50;;;;;;;23.22;53.88;100878.97;4878065;29;20104;-91
2021/06/20 07:35:03;;;;;;;3.53;1.20;;;;;;;23.20;53.58;100861.47;4882394;29;20040;-91
2021/06/20 08:27:42;;;;;;;4.25;1.60;;;;;;;23.89;52.68;100907.38;4901196;29;20064;-94
2021/06/20 08:30:15;;;;;;;4.43;1.20;;;;;;;23.85;52.52;100909.25;4871259;29;20536;-92
2021/06/20 08:32:41;;;;;;;;;;;;;;;23.88;51.20;100913.56;4872931;29;20036;-92
2021/06/20 08:35:09;;;;;;;5.57;1.67;;;;;;;23.96;51.20;100916.78;4885857;29;19915;-92
2021/06/20 08:37:37;;;;;;;5.45;1.77;;;;;;;24.02;50.95;100924.44;4887610;29;20029;-91
2021/06/20 08:40:05;;;;;;;4.45;1.77;;;;;;;24.27;49.67;100921.78;4888821;29;20025;-92
2021/06/20 08:42:30;;;;;;;4.13;1.52;;;;;;;24.70;48.44;100917.59;4906734;29;20028;-91
2021/06/20 08:45:04;;;;;;;3.63;1.73;;;;;;;25.04;47.86;100908.38;4907996;29;20031;-92
2021/06/20 09:24:15;;;;;;;4.15;1.60;;;;;;;25.28;47.56;100940.78;5242897;23;20077;-93
2021/06/20 09:40:54;;;;;;;;;;;;;;;;;;;;;
2021/06/20 11:14:09;;;;;;;12.60;3.83;;;;;;;23.67;56.28;101015.81;4726204;30;20137;-93
2021/06/20 11:58:44;;;;;;;13.40;4.97;;;;;;;24.01;55.62;100984.03;4892588;29;20059;-90
2021/06/20 12:07:55;;;;;;;;;;;;;;;;;;;;;
2021/06/20 12:11:11;;;;;;;12.30;4.32;;;;;;;24.36;55.01;100962.69;4809073;29;20153;-91
2021/06/20 12:17:49;;;;;;;10.07;4.35;;;;;;;24.30;54.65;100953.25;4874157;29;20069;-92
2021/06/20 12:22:51;;;;;;;9.95;3.63;;;;;;;24.17;55.76;100947.56;4973073;23;20140;-91
2021/06/20 12:25:18;;;;;;;9.30;3.72;;;;;;;24.23;54.87;100955.22;4884761;29;20093;-91
2021/06/20 12:27:56;;;;;;;8.15;3.35;;;;;;;24.33;54.41;100958.38;4897619;29;20052;-91
2021/06/20 12:34:24;;;;;;;9.48;3.80;;;;;;;24.50;53.45;100977.97;4898520;29;20044;-90
2021/06/20 12:37:02;;;;;;;6.28;2.97;;;;;;;24.50;52.86;100972.72;4918754;23;20057;-90
2021/06/20 12:40:00;;;;;;;6.63;3.25;;;;;;;24.52;52.82;100966.50;4880196;29;20025;-90
2021/06/20 12:42:28;;;;;;;6.10;3.20;;;;;;;24.54;53.81;100974.31;4861260;29;20113;-90
2021/06/20 12:44:55;;;;;;;7.40;3.00;;;;;;;24.52;53.93;100970.88;4877310;29;20056;-90
2021/06/20 12:49:52;;;;;;;5.68;3.17;;;;;;;24.57;53.67;100982.97;4921750;23;20143;-91
2021/06/20 12:52:32;;;;;;;6.47;2.83;;;;;;;24.55;53.52;100992.69;4880776;29;20040;-90
2021/06/20 13:03:41;;;;;;;5.45;2.92;;;;;;;24.75;52.61;100999.00;4962192;23;20063;-91
2021/06/20 13:06:12;;;;;;;4.70;2.60;;;;;;;24.75;54.08;100999.84;4882199;29;20061;-91
2021/06/20 13:08:45;;;;;;;3.97;2.70;;;;;;;24.75;53.69;101002.47;4892152;29;20029;-91
2021/06/20 13:17:55;;;;;;;4.40;2.53;;;;;;;24.77;52.86;101012.97;4892193;29;20081;-91
2021/06/20 13:20:28;;;;;;;4.22;2.67;;;;;;;24.76;52.69;101016.50;4892486;29;20025;-90
2021/06/20 13:22:58;;;;;;;5.63;2.75;;;;;;;24.72;53.15;101013.13;4895603;29;20029;-90
2021/06/20 13:34:41;;;;;;;4.53;2.60;;;;;;;24.51;54.59;101006.88;4892962;29;20105;-91
2021/06/20 13:37:08;;;;;;;3.67;2.33;;;;;;;24.57;53.35;101009.28;4890267;29;20037;-91
2021/06/20 13:40:04;;;;;;;5.55;2.72;;;;;;;24.57;53.48;100995.28;4889255;29;20036;-91
2021/06/20 13:42:33;;;;;;;3.90;2.20;;;;;;;24.56;53.10;100990.91;4882573;29;20037;-91
2021/06/20 13:45:07;;;;;;;3.28;2.03;;;;;;;24.58;52.80;100989.94;4877314;29;20030;-91
2021/06/20 13:47:36;;;;;;;3.97;2.28;;;;;;;24.59;53.11;100985.56;4860534;29;20437;-91
2021/06/20 13:50:06;;;;;;;4.75;2.28;;;;;;;24.61;53.08;100984.59;4890443;29;20029;-91
2021/06/20 13:52:35;;;;;;;4.35;2.55;;;;;;;24.67;53.15;100995.78;4890286;29;20489;-91
2021/06/20 13:55:06;;;;;;;3.47;2.50;;;;;;;24.72;52.89;100999.97;4887563;29;20025;-93
2021/06/20 13:57:32;;;;;;;3.40;2.33;;;;;;;24.78;52.82;100999.75;4887999;29;20037;-90
2021/06/20 13:59:58;;;;;;;3.15;2.00;;;;;;;24.77;52.74;100989.28;4890719;29;20032;-93
2021/06/20 14:02:24;;;;;;;3.78;2.20;;;;;;;24.78;52.99;100989.22;4889524;29;20029;-92
2021/06/20 14:04:50;;;;;;;4.32;2.30;;;;;;;24.73;52.96;100974.50;4889980;29;20036;-93
2021/06/20 14:07:16;;;;;;;4.05;2.40;;;;;;;24.74;52.41;100981.50;4891238;29;20136;-91
2021/06/20 14:09:44;;;;;;;3.63;2.47;;;;;;;24.77;52.25;100979.59;4889875;29;20044;-91
2021/06/20 14:12:20;;;;;;;2.40;2.10;;;;;;;24.81;52.67;100968.03;4890819;29;20093;-91
2021/06/20 14:14:46;;;;;;;2.95;2.00;;;;;;;24.87;52.20;100979.25;4876770;29;20029;-89
2021/06/20 14:17:18;;;;;;;3.70;2.35;;;;;;;24.91;52.42;100980.84;4948319;23;20053;-92
2021/06/20 14:19:47;;;;;;;3.90;2.13;;;;;;;24.92;52.50;100987.84;4880106;24;20045;-92
2021/06/20 14:22:15;;;;;;;4.70;2.20;;;;;;;24.91;52.22;100987.00;4874363;29;20133;-93
2021/06/20 14:28:03;;;;;;;2.67;1.98;;;;;;;24.93;52.42;100976.38;4890182;29;20051;-92
2021/06/20 14:30:34;;;;;;;3.60;2.10;;;;;;;24.94;52.46;100981.59;4873600;29;20028;-93
2021/06/20 14:39:47;;;;;;;4.35;2.20;;;;;;;24.92;52.07;100993.13;4891934;29;20057;-90
2021/06/20 14:42:21;;;;;;;3.17;2.03;;;;;;;24.92;51.93;101001.00;4876918;29;20033;-91
2021/06/20 14:44:49;;;;;;;2.53;2.10;;;;;;;24.92;51.72;100987.84;4862442;29;20029;-91
2021/06/20 14:47:18;;;;;;;2.67;2.17;;;;;;;24.91;52.13;100989.63;4879090;29;20499;-91
2021/06/20 14:49:46;;;;;;;3.10;2.08;;;;;;;24.91;51.94;100986.13;4893005;29;20412;-91
2021/06/20 14:52:17;;;;;;;2.88;2.30;;;;;;;24.87;51.90;100981.88;4861352;29;20029;-91
2021/06/20 14:54:52;;;;;;;2.95;2.20;;;;;;;24.86;51.79;100990.72;4873861;29;20029;-92
2021/06/20 14:57:27;;;;;;;3.28;2.22;;;;;;;24.87;52.00;100989.78;4868238;29;20037;-92
2021/06/20 14:59:56;;;;;;;2.55;1.92;;;;;;;24.80;52.30;100990.03;4878961;29;20396;-92
2021/06/20 15:02:24;;;;;;;2.90;2.13;;;;;;;24.76;51.65;100987.53;4876796;29;20069;-91
2021/06/20 15:04:53;;;;;;;3.17;2.35;;;;;;;24.73;51.86;100988.53;4878653;29;20044;-91
2021/06/20 15:07:21;;;;;;;2.92;2.22;;;;;;;24.71;52.04;100997.41;4864945;29;20377;-91
2021/06/20 15:09:47;;;;;;;2.92;2.13;;;;;;;24.70;52.19;100990.44;4872328;29;20544;-91
2021/06/20 15:12:15;;;;;;;4.72;2.40;;;;;;;24.68;52.17;100981.72;4871709;29;20059;-90
2021/06/20 15:14:50;;;;;;;3.22;2.30;;;;;;;24.68;51.95;100974.69;4872610;29;20120;-90
2021/06/20 15:17:27;;;;;;;2.72;2.40;;;;;;;24.69;51.78;100971.13;4875577;29;20025;-92
2021/06/20 15:20:04;;;;;;;2.60;2.03;;;;;;;24.69;51.84;100962.38;4868235;29;20085;-92
2021/06/20 15:22:32;;;;;;;3.50;2.42;;;;;;;24.65;51.60;100956.41;4870436;29;20033;-92
2021/06/20 15:24:58;;;;;;;2.60;2.40;;;;;;;24.63;51.66;100947.69;4877989;29;20037;-91
2021/06/20 15:27:24;;;;;;;3.40;2.47;;;;;;;24.65;51.29;100945.88;4876390;29;20032;-91
2021/06/20 15:29:49;;;;;;;3.20;2.47;;;;;;;24.66;51.19;100946.72;4875838;29;20029;-91
2021/06/20 15:32:44;;;;;;;2.80;2.33;;;;;;;24.63;50.18;100948.56;4877498;29;20080;-91
2021/06/20 15:35:14;;;;;;;3.58;2.50;;;;;;;24.64;51.17;100936.25;4876610;29;20132;-90
2021/06/20 15:37:48;;;;;;;3.08;2.20;;;;;;;24.59;51.39;100933.78;4862955;29;20064;-90
2021/06/20 15:40:17;;;;;;;2.92;2.15;;;;;;;24.60;50.04;100929.38;4878533;29;20040;-90
2021/06/20 15:42:43;;;;;;;3.60;2.30;;;;;;;24.59;50.50;100922.41;4878384;29;20107;-89
2021/06/20 15:45:11;;;;;;;2.72;2.20;;;;;;;24.59;50.77;100935.56;4880458;29;20025;-89
2021/06/20 15:47:44;;;;;;;2.42;2.10;;;;;;;24.57;50.91;100925.09;4880833;29;20033;-90
2021/06/20 15:56:53;;;;;;;3.55;2.40;;;;;;;24.60;50.50;100937.28;4893964;29;20556;-91
2021/06/20 15:59:19;;;;;;;2.40;2.20;;;;;;;24.61;50.66;100937.22;4873462;29;20029;-90
2021/06/20 16:01:45;;;;;;;3.13;2.08;;;;;;;24.61;50.74;100931.97;4875151;29;20040;-90
2021/06/20 16:04:13;;;;;;;3.08;2.17;;;;;;;24.61;50.53;100931.13;4876936;29;20029;-91
2021/06/20 16:06:39;;;;;;;2.22;2.00;;;;;;;24.63;51.10;100931.91;4875265;29;20021;-89
2021/06/20 16:09:05;;;;;;;3.15;2.10;;;;;;;24.62;51.02;100945.97;4873605;29;20806;-90
2021/06/20 16:13:56;;;;;;;3.80;2.08;;;;;;;24.61;49.78;100945.13;4898602;23;20064;-91
2021/06/20 16:23:08;;;;;;;2.55;1.95;;;;;;;24.72;50.46;100954.38;4891742;29;20062;-91
2021/06/20 16:25:34;;;;;;;2.88;2.20;;;;;;;24.71;49.89;100952.66;4871977;29;20064;-90
2021/06/20 16:27:59;;;;;;;4.72;2.10;;;;;;;24.71;49.82;100953.50;4884731;29;20409;-92
2021/06/20 16:32:51;;;;;;;2.97;2.30;;;;;;;24.73;49.08;100966.63;4906303;23;20153;-90
2021/06/20 16:35:17;;;;;;;3.80;2.30;;;;;;;24.71;50.18;100968.44;4887163;29;20025;-93
2021/06/20 16:37:48;;;;;;;2.63;2.28;;;;;;;24.70;50.05;100969.38;4888989;29;20033;-93
2021/06/20 16:40:16;;;;;;;2.40;1.92;;;;;;;24.68;50.19;100979.09;4888862;29;20473;-92
2021/06/20 16:42:41;;;;;;;2.25;2.00;;;;;;;24.66;49.50;100979.16;4889486;29;20080;-90
2021/06/20 16:45:21;;;;;;;2.20;2.00;;;;;;;24.67;48.63;100972.94;4886493;29;20060;-91
2021/06/20 16:47:49;;;;;;;2.45;2.00;;;;;;;24.67;49.03;100970.31;4886653;29;20017;-90
2021/06/20 16:50:18;;;;;;;2.88;2.10;;;;;;;24.65;49.51;100964.28;4868633;29;20044;-91
2021/06/20 16:52:44;;;;;;;2.70;2.10;;;;;;;24.65;48.78;100966.91;4882213;29;20489;-92
2021/06/20 16:55:10;;;;;;;3.88;1.98;;;;;;;24.62;49.74;100969.66;4866563;29;20139;-92
2021/06/20 16:57:35;;;;;;;2.10;1.88;;;;;;;24.62;48.93;100970.50;4882927;29;20033;-91
2021/06/20 17:00:01;;;;;;;2.00;1.70;;;;;;;24.61;48.79;100975.84;4867354;29;20040;-91
2021/06/20 17:02:30;;;;;;;3.45;2.40;;;;;;;24.62;49.01;100978.41;4884735;29;20051;-90
2021/06/20 17:04:55;;;;;;;2.50;2.10;;;;;;;24.64;48.49;100987.09;4871676;29;20036;-92
2021/06/20 17:07:21;;;;;;;2.97;2.05;;;;;;;24.67;49.11;100988.75;4889858;29;20041;-92
2021/06/20 17:09:48;;;;;;;3.55;1.90;;;;;;;24.71;48.55;100992.97;4874328;29;20036;-93
2021/06/20 17:12:23;;;;;;;2.15;1.90;;;;;;;24.73;48.62;100998.19;4874805;29;20026;-94
2021/06/20 17:14:51;;;;;;;2.53;1.90;;;;;;;24.79;48.85;101000.59;4873477;29;20066;-92
2021/06/20 17:17:17;;;;;;;2.38;1.88;;;;;;;24.81;48.79;100994.38;4888443;29;20042;-89
2021/06/20 17:19:55;;;;;;;2.92;2.00;;;;;;;24.84;48.67;100998.66;4874759;29;20037;-91
2021/06/20 17:22:21;;;;;;;3.22;2.13;;;;;;;24.83;48.34;100995.16;4874130;29;20029;-92
2021/06/20 17:24:46;;;;;;;2.10;1.90;;;;;;;24.88;48.53;100992.34;4876824;29;20040;-92
2021/06/20 17:27:38;;;;;;;2.25;2.00;;;;;;;24.92;48.91;100985.22;4878326;29;20044;-91
2021/06/20 17:30:08;;;;;;;2.95;2.10;;;;;;;24.91;48.94;100981.72;4875190;29;20041;-92
2021/06/20 17:32:39;;;;;;;3.28;2.10;;;;;;;24.95;48.44;100980.66;4893497;29;20069;-92
2021/06/20 17:35:06;;;;;;;3.75;1.90;;;;;;;24.94;48.80;100986.88;4897518;29;20044;-90
2021/06/20 17:37:32;;;;;;;2.85;2.30;;;;;;;24.89;48.19;100986.19;4898410;29;20025;-90
2021/06/20 17:40:06;;;;;;;3.03;2.50;;;;;;;24.79;49.06;100987.44;4883531;29;20022;-91
2021/06/20 17:42:34;;;;;;;5.18;2.78;;;;;;;24.71;49.53;101000.88;4868072;29;20033;-91
2021/06/20 17:45:00;;;;;;;5.65;2.30;;;;;;;24.73;49.47;100988.53;4869046;29;20037;-92
2021/06/20 17:50:47;;;;;;;4.13;2.60;;;;;;;24.76;49.31;101001.59;4883441;29;20058;-92
2021/06/20 17:56:54;;;;;;;4.55;2.30;;;;;;;24.55;49.45;101000.59;4882401;29;20062;-91
2021/06/20 17:59:25;;;;;;;3.25;2.15;;;;;;;24.48;49.47;100985.94;4879748;29;20033;-92
2021/06/20 18:01:53;;;;;;;5.45;2.40;;;;;;;24.42;49.60;100975.63;4889043;29;20037;-91
2021/06/20 18:04:19;;;;;;;2.38;1.80;;;;;;;24.40;49.69;100980.06;4887394;29;20033;-90
2021/06/20 18:06:44;;;;;;;4.07;2.13;;;;;;;24.42;49.61;100981.72;4853544;29;20029;-92
2021/06/20 18:09:11;;;;;;;3.65;2.30;;;;;;;24.39;49.61;100975.72;4867795;29;20392;-92
2021/06/20 18:11:41;;;;;;;3.78;1.92;;;;;;;24.36;49.53;100962.69;4867727;29;20029;-91
2021/06/20 18:14:07;;;;;;;3.20;2.40;;;;;;;24.33;50.00;100968.91;4882271;29;20056;-91
2021/06/20 18:16:34;;;;;;;3.75;2.10;;;;;;;24.32;49.76;100967.16;4869704;29;20036;-91
2021/06/20 18:18:59;;;;;;;3.63;2.13;;;;;;;24.31;50.02;100954.09;4866681;29;20397;-93
2021/06/20 18:21:28;;;;;;;2.75;1.90;;;;;;;24.29;49.88;100951.53;4868266;29;20030;-92
2021/06/20 18:23:54;;;;;;;4.05;2.35;;;;;;;24.32;49.80;100955.81;4866430;29;20033;-93
2021/06/20 18:26:23;;;;;;;3.72;2.00;;;;;;;24.30;50.07;100960.25;4851256;29;20128;-93
2021/06/20 18:28:48;;;;;;;3.17;2.00;;;;;;;24.30;49.59;100966.41;4882592;29;20032;-91
2021/06/20 18:31:14;;;;;;;4.65;2.20;;;;;;;24.24;50.00;100969.25;4867077;29;20054;-94
2021/06/20 18:33:40;;;;;;;4.18;2.10;;;;;;;24.23;49.74;100972.78;4881097;29;20025;-92
2021/06/20 18:36:08;;;;;;;3.78;2.05;;;;;;;24.18;49.62;100978.19;4868080;29;20045;-93
2021/06/20 18:38:34;;;;;;;3.00;1.90;;;;;;;24.16;50.28;100979.16;4882111;29;20036;-92
2021/06/20 18:40:59;;;;;;;4.90;2.35;;;;;;;24.08;50.19;100975.94;4882489;29;20034;-93
2021/06/20 18:43:27;;;;;;;5.50;2.17;;;;;;;24.06;50.43;100972.50;4867393;29;20034;-90
2021/06/20 18:45:53;;;;;;;3.67;2.20;;;;;;;24.10;50.24;100976.75;4867678;29;20101;-94
2021/06/20 18:48:21;;;;;;;4.82;2.08;;;;;;;24.07;50.23;100987.38;4868645;29;20516;-93
2021/06/20 18:50:49;;;;;;;2.72;2.10;;;;;;;24.08;50.12;100979.41;4885249;29;20034;-93
2021/06/20 18:53:15;;;;;;;3.92;2.15;;;;;;;24.07;49.93;100976.88;4872816;29;20029;-92
2021/06/20 18:55:41;;;;;;;3.65;2.20;;;;;;;23.98;50.18;100978.03;4885485;29;20434;-92
2021/06/20 18:58:25;;;;;;;2.72;1.95;;;;;;;24.03;50.20;100981.34;4891532;29;20098;-93
2021/06/20 19:00:51;;;;;;;3.70;2.10;;;;;;;24.02;50.48;100990.16;4876799;29;20037;-92
2021/06/20 19:03:22;;;;;;;3.55;2.30;;;;;;;24.00;50.51;100992.00;4892592;29;20022;-94
2021/06/20 19:05:54;;;;;;;5.90;2.30;;;;;;;24.00;49.96;100992.84;4876906;29;20132;-92
2021/06/20 19:08:41;;;;;;;3.63;2.10;;;;;;;23.92;50.13;100997.50;4858388;29;20042;-93
2021/06/20 19:11:14;;;;;;;3.03;1.70;;;;;;;24.00;50.38;101005.13;4868974;29;20140;-93
2021/06/20 19:16:17;;;;;;;3.72;2.50;;;;;;;23.83;50.43;101007.47;4924209;23;20073;-93
2021/06/20 19:18:43;;;;;;;4.47;2.50;;;;;;;23.55;50.07;101014.44;4887809;29;20064;-93
2021/06/20 19:27:58;;;;;;;4.78;2.13;;;;;;;23.28;50.10;101000.41;4897225;29;20037;-93
2021/06/20 19:40:29;;;;;;;4.03;2.03;;;;;;;23.38;49.75;101009.69;1759408;24;20317;-89
2021/06/20 19:43:06;;;;;;;;;;;;;;;;;;;;;
2021/06/20 19:48:20;;;;;;;4.95;2.20;;;;;;;23.17;50.19;101019.13;4925778;23;20047;-91
2021/06/20 19:50:46;;;;;;;6.60;2.50;;;;;;;23.09;49.83;100999.25;4895735;29;20041;-93
2021/06/20 19:53:25;;;;;;;5.35;2.13;;;;;;;23.09;49.74;101007.97;4897178;29;20025;-92
2021/06/20 19:55:50;;;;;;;6.07;2.17;;;;;;;23.03;49.84;101010.78;4881862;29;20025;-92
2021/06/20 19:58:21;;;;;;;3.90;2.00;;;;;;;22.95;49.84;101005.72;4896431;29;20323;-91
2021/06/20 20:04:09;;;;;;;6.15;2.10;;;;;;;22.94;49.91;101005.78;4897165;29;20043;-92
2021/06/20 20:06:37;;;;;;;4.85;1.98;;;;;;;23.13;50.07;101014.00;4891235;29;20069;-92
2021/06/20 20:09:03;;;;;;;2.85;1.88;;;;;;;23.25;50.27;101023.25;4895870;23;20041;-92
2021/06/20 20:11:29;;;;;;;6.05;1.95;;;;;;;23.31;51.23;101023.94;4873219;29;20556;-94
2021/06/20 20:13:54;;;;;;;3.05;2.03;;;;;;;23.34;51.21;101023.84;4872672;29;20026;-92
2021/06/20 20:16:22;;;;;;;4.90;1.90;;;;;;;23.35;51.42;101030.81;4868748;29;20029;-93
2021/06/20 20:18:50;;;;;;;3.28;1.92;;;;;;;23.36;51.80;101019.38;4852112;29;20036;-93
2021/06/20 20:21:15;;;;;;;3.63;2.03;;;;;;;23.36;51.93;101018.53;4873285;29;20038;-93
2021/06/20 20:23:41;;;;;;;4.85;2.10;;;;;;;23.33;51.46;101022.13;4858079;29;20059;-92
2021/06/20 20:26:08;;;;;;;4.18;2.20;;;;;;;23.28;51.67;101016.16;4877554;29;20010;-92
2021/06/20 20:28:34;;;;;;;5.72;2.10;;;;;;;23.29;51.46;101017.88;4883382;29;20017;-91
2021/06/20 20:31:00;;;;;;;5.60;2.10;;;;;;;23.32;51.97;101020.41;4864954;29;20038;-92
2021/06/20 20:33:26;;;;;;;4.57;2.25;;;;;;;23.33;52.51;101013.38;4877163;29;20022;-92
2021/06/20 20:35:51;;;;;;;4.60;2.10;;;;;;;23.34;52.01;101021.22;4876894;29;20094;-93
2021/06/20 20:38:19;;;;;;;5.68;2.00;;;;;;;23.34;52.21;101026.47;4875429;29;20112;-93
2021/06/20 20:40:45;;;;;;;4.43;2.20;;;;;;;23.35;51.70;101041.31;4844994;29;20117;-94
2021/06/20 20:43:11;;;;;;;5.60;2.00;;;;;;;23.34;51.43;101042.25;4873582;29;20112;-93
2021/06/20 20:45:46;;;;;;;4.68;2.20;;;;;;;23.35;51.69;101037.84;4874889;29;20022;-92
2021/06/20 20:48:12;;;;;;;3.58;2.20;;;;;;;23.30;51.67;101037.09;4873705;29;20093;-93
2021/06/20 20:50:38;;;;;;;6.88;2.35;;;;;;;23.29;51.92;101032.75;4870516;29;20064;-92
2021/06/20 20:53:05;;;;;;;3.22;1.98;;;;;;;23.32;51.81;101037.91;4874290;29;20037;-93
2021/06/20 20:55:34;;;;;;;4.70;2.20;;;;;;;23.29;51.76;101038.88;4859587;29;20034;-93
2021/06/20 20:58:03;;;;;;;3.90;2.25;;;;;;;23.30;51.65;101039.72;4875714;29;20029;-92
2021/06/20 21:00:43;;;;;;;;;;;;;;;;;;;;;
2021/06/20 21:03:09;;;;;;;3.08;1.98;;;;;;;23.31;51.61;101049.34;4875844;29;20052;-93
2021/06/20 21:05:41;;;;;;;5.10;2.20;;;;;;;23.28;52.04;101046.78;4873966;29;20026;-94
2021/06/20 21:08:06;;;;;;;6.10;2.40;;;;;;;23.26;51.54;101044.22;4879329;29;20029;-94
2021/06/20 21:10:32;;;;;;;6.15;2.38;;;;;;;23.22;52.00;101044.38;4875791;29;20113;-93
2021/06/20 21:12:58;;;;;;;6.72;2.22;;;;;;;23.17;51.90;101039.25;4876648;29;20112;-94
2021/06/20 21:15:24;;;;;;;3.95;2.03;;;;;;;23.20;51.50;101033.91;4871744;29;20078;-94
2021/06/20 21:17:49;;;;;;;3.42;2.22;;;;;;;23.16;52.01;101037.53;4874019;29;20085;-92
2021/06/20 21:20:16;;;;;;;4.50;2.50;;;;;;;23.14;51.87;101032.31;4880378;29;20053;-93
2021/06/20 21:22:41;;;;;;;4.53;2.30;;;;;;;23.22;51.99;101034.72;4877853;29;20036;-93
2021/06/20 21:25:08;;;;;;;7.38;2.13;;;;;;;23.37;51.47;101041.28;4874042;29;20033;-94
2021/06/20 21:27:35;;;;;;;4.85;2.38;;;;;;;23.39;51.18;101040.31;4876700;29;20084;-93
2021/06/20 21:30:01;;;;;;;5.70;2.60;;;;;;;23.42;51.23;101037.59;4857577;29;20030;-93
2021/06/20 21:35:51;;;;;;;6.43;2.40;;;;;;;23.48;51.70;101028.66;4882642;29;20048;-90
2021/06/20 21:38:17;;;;;;;6.95;2.80;;;;;;;23.43;51.21;101022.72;4878957;29;20450;-91
2021/06/20 21:40:43;;;;;;;4.63;2.10;;;;;;;23.34;51.18;101021.22;4866858;29;20057;-90
2021/06/20 21:43:09;;;;;;;5.65;2.30;;;;;;;23.33;51.08;101010.75;4866726;29;20033;-90
2021/06/20 21:45:35;;;;;;;4.20;2.38;;;;;;;23.29;50.66;101010.00;4866461;29;20044;-90
2021/06/20 21:48:01;;;;;;;4.35;2.60;;;;;;;23.29;50.62;101002.09;4850478;29;20069;-91
2021/06/20 21:50:30;;;;;;;4.57;2.72;;;;;;;23.31;50.79;101015.19;4867121;29;20393;-91
2021/06/20 21:52:55;;;;;;;5.20;2.40;;;;;;;23.31;50.88;101002.06;4867126;29;20025;-92
2021/06/20 21:55:24;;;;;;;5.13;2.35;;;;;;;23.26;50.54;101004.00;4856282;29;20040;-91
2021/06/20 21:57:50;;;;;;;5.78;2.72;;;;;;;23.27;50.88;100995.19;4871982;29;20070;-90
2021/06/20 22:00:19;;;;;;;5.75;2.47;;;;;;;23.30;51.04;100987.22;4871058;29;20033;-90
2021/06/20 22:02:45;;;;;;;5.78;2.58;;;;;;;23.33;50.66;100984.50;4868351;29;20165;-91
2021/06/20 22:05:13;;;;;;;4.20;2.63;;;;;;;23.32;50.42;100980.16;4852123;29;20057;-91
2021/06/20 22:07:39;;;;;;;4.22;2.30;;;;;;;23.29;50.81;100978.47;4868682;29;20033;-90
2021/06/20 22:10:06;;;;;;;4.25;2.58;;;;;;;23.24;50.93;100977.78;4874311;29;20053;-91
2021/06/20 22:12:31;;;;;;;4.47;2.47;;;;;;;23.26;51.11;100975.97;4868866;29;20081;-90
2021/06/20 22:14:57;;;;;;;6.28;2.53;;;;;;;23.19;50.77;100979.66;4852657;29;20033;-89
2021/06/20 22:17:22;;;;;;;5.18;2.47;;;;;;;23.19;50.54;100975.28;4850559;29;20029;-90
2021/06/20 22:19:48;;;;;;;4.40;2.67;;;;;;;23.18;50.59;100973.56;4865416;29;20033;-89
2021/06/20 22:22:13;;;;;;;4.80;2.72;;;;;;;23.18;50.70;100977.97;4865529;29;20089;-90
2021/06/20 22:24:39;;;;;;;4.05;2.53;;;;;;;23.19;50.29;100977.91;4835556;29;20030;-90
2021/06/20 22:27:05;;;;;;;4.07;2.30;;;;;;;23.17;50.50;100971.84;4866055;29;20022;-91
2021/06/20 22:29:31;;;;;;;5.18;2.80;;;;;;;23.21;50.46;100975.22;4866062;29;20057;-90
2021/06/20 22:31:57;;;;;;;4.65;2.40;;;;;;;23.20;50.30;100966.50;4865300;29;20026;-90
2021/06/20 22:34:22;;;;;;;7.35;2.70;;;;;;;23.14;50.68;100969.31;4865977;29;20032;-90
2021/06/20 22:36:49;;;;;;;3.65;2.35;;;;;;;23.15;50.35;100964.94;4865621;29;20124;-88
2021/06/20 22:39:14;;;;;;;4.95;2.92;;;;;;;23.13;50.47;100972.00;4865746;29;20039;-91
2021/06/20 22:41:40;;;;;;;2.80;2.28;;;;;;;23.15;50.36;100971.03;4853541;29;20029;-91
2021/06/20 22:44:06;;;;;;;4.50;2.72;;;;;;;23.15;50.36;100973.66;4866182;29;20041;-90
2021/06/20 22:46:33;;;;;;;6.50;2.72;;;;;;;23.11;50.03;100977.28;4865492;29;20424;-90
2021/06/20 22:48:59;;;;;;;4.40;2.40;;;;;;;23.07;50.38;100965.16;4833947;29;20097;-89
2021/06/20 22:51:25;;;;;;;8.10;2.50;;;;;;;23.18;50.25;100970.94;4849445;29;20057;-89
2021/06/20 22:53:52;;;;;;;5.18;2.70;;;;;;;23.17;49.97;100953.47;4865763;29;20078;-89
2021/06/20 22:56:18;;;;;;;4.28;2.60;;;;;;;23.16;49.97;100961.38;4866225;29;20496;-89
2021/06/20 22:58:44;;;;;;;3.45;2.20;;;;;;;23.11;50.29;100950.19;4881366;29;20017;-89
2021/06/20 23:01:10;;;;;;;4.43;2.30;;;;;;;23.11;49.98;100958.91;4872727;29;20053;-90
2021/06/20 23:03:35;;;;;;;5.63;2.40;;;;;;;23.08;49.89;100964.28;4865975;29;20030;-89
2021/06/20 23:06:01;;;;;;;4.45;2.40;;;;;;;23.13;50.07;100967.59;4865031;29;20141;-90
2021/06/20 23:08:27;;;;;;;4.70;2.53;;;;;;;23.07;49.81;100956.44;4865817;29;20033;-91
2021/06/20 23:10:52;;;;;;;3.90;2.38;;;;;;;23.06;49.88;100944.19;4869819;29;20060;-91
2021/06/20 23:13:18;;;;;;;3.08;2.33;;;;;;;23.08;49.60;100945.00;4865073;29;20125;-90
2021/06/20 23:15:43;;;;;;;3.55;2.13;;;;;;;23.12;49.88;100949.25;4835636;29;20038;-89
2021/06/20 23:18:09;;;;;;;4.05;2.33;;;;;;;23.14;49.82;100950.94;4864214;29;20053;-90
2021/06/20 23:20:36;;;;;;;3.85;2.40;;;;;;;23.14;49.64;100957.94;4865580;29;20036;-90
2021/06/20 23:23:02;;;;;;;3.20;2.35;;;;;;;23.09;49.37;100947.59;4867067;29;20047;-90
2021/06/20 23:25:28;;;;;;;3.75;2.30;;;;;;;23.03;49.05;100950.41;4871838;29;20032;-90
2021/06/20 23:27:55;;;;;;;2.95;2.00;;;;;;;23.04;49.71;100946.00;4872669;29;20037;-89
2021/06/20 23:30:24;;;;;;;5.95;2.40;;;;;;;23.03;49.18;100957.44;4872391;29;20058;-90
2021/06/20 23:32:50;;;;;;;5.10;2.33;;;;;;;23.02;49.05;100960.94;4871998;29;20029;-91
2021/06/20 23:35:18;;;;;;;4.28;2.70;;;;;;;23.00;49.33;100964.50;4868111;29;20033;-90
2021/06/20 23:37:44;;;;;;;4.50;2.40;;;;;;;23.11;49.51;100965.94;4863775;29;20500;-89
2021/06/20 23:40:10;;;;;;;5.30;2.42;;;;;;;23.14;49.23;100964.06;4866721;29;20021;-90
2021/06/20 23:42:36;;;;;;;4.47;2.10;;;;;;;23.03;49.19;100952.19;4866832;29;20093;-91
2021/06/20 23:45:07;;;;;;;4.68;2.50;;;;;;;23.07;49.19;100952.03;4867779;29;20040;-89
2021/06/20 23:47:33;;;;;;;4.78;2.50;;;;;;;22.99;48.85;100939.13;4866487;29;20384;-90
2021/06/20 23:49:59;;;;;;;3.90;2.13;;;;;;;22.97;48.85;100947.94;4864701;29;20037;-89
2021/06/20 23:52:25;;;;;;;3.45;2.40;;;;;;;23.01;49.44;100946.97;4848770;29;20493;-90
2021/06/20 23:54:57;;;;;;;5.80;2.10;;;;;;;22.95;48.72;100947.13;4847661;29;20029;-89
2021/06/20 23:57:24;;;;;;;4.47;2.47;;;;;;;22.88;48.74;100942.97;4862837;29;20033;-90
2021/06/20 23:59:50;;;;;;;5.70;2.50;;;;;;;22.94;49.13;100942.78;4863729;29;20025;-90
